Schneifelwetter: Wetterstation Hallschlag, 537 m . NN
Wetterdaten: Sonntag, 01.04.2007
Datum Zeit Temp. A. Temp. 2 Feuchte A. Luftdruck Regen Wind Richtung Richtung Sonnenschein Helligkeit T Regen Taupunkt Windchill
01.04.2007 00:00 7,3 C 6,3 C 84 % 1018 hPa 0,0 l/m 9,8 km/h (2 Bft) N-NO22.5 20 0 min 0 lux 0,00 min 4,8 C 4,7 C
01.04.2007 00:15 7,2 C 6,2 C 84 % 1018 hPa 0,0 l/m 9,6 km/h (2 Bft) N-NO22.5 20 0 min 0 lux 0,00 min 4,7 C 4,8 C
01.04.2007 00:30 7,1 C 6,1 C 84 % 1018 hPa 0,0 l/m 11,0 km/h (2 Bft) N-NO 25 0 min 0 lux 0,00 min 4,6 C 3,8 C
01.04.2007 00:45 6,9 C 5,9 C 85 % 1018 hPa 0,0 l/m 8,7 km/h (2 Bft) N-NO22.5 30 0 min 0 lux 0,00 min 4,6 C 5,1 C
01.04.2007 01:00 6,9 C 5,9 C 85 % 1018 hPa 0,0 l/m 11,4 km/h (2 Bft) N-NO22.5 30 0 min 0 lux 0,00 min 4,6 C 3,3 C
01.04.2007 01:16 6,8 C 5,7 C 85 % 1018 hPa 0,0 l/m 7,9 km/h (2 Bft) NO22.5 45 0 min 0 lux 0,00 min 4,5 C 5,6 C
01.04.2007 01:31 6,8 C 5,7 C 85 % 1018 hPa 0,0 l/m 8,6 km/h (2 Bft) NO22.5 50 0 min 0 lux 0,00 min 4,5 C 5,0 C
01.04.2007 01:46 6,6 C 5,2 C 84 % 1019 hPa 0,0 l/m 8,4 km/h (2 Bft) NO22.5 50 0 min 0 lux 0,00 min 4,1 C 5,0 C
01.04.2007 02:01 6,4 C 4,8 C 84 % 1019 hPa 0,0 l/m 10,3 km/h (2 Bft) NO22.5 40 0 min 0 lux 0,00 min 3,9 C 3,4 C
01.04.2007 02:16 6,3 C 4,8 C 84 % 1018 hPa 0,0 l/m 10,8 km/h (2 Bft) NO22.5 45 0 min 0 lux 0,00 min 3,8 C 3,0 C
01.04.2007 02:31 6,3 C 4,8 C 83 % 1019 hPa 0,0 l/m 10,2 km/h (2 Bft) NO22.5 45 0 min 0 lux 0,00 min 3,6 C 3,4 C
01.04.2007 02:46 6,4 C 4,9 C 83 % 1018 hPa 0,0 l/m 11,1 km/h (2 Bft) NO22.5 45 0 min 0 lux 0,00 min 3,7 C 2,9 C
01.04.2007 03:01 6,4 C 4,8 C 82 % 1018 hPa 0,0 l/m 15,3 km/h (3 Bft) NO22.5 40 0 min 0 lux 0,00 min 3,6 C 0,6 C
01.04.2007 03:16 6,0 C 4,6 C 82 % 1018 hPa 0,0 l/m 13,7 km/h (3 Bft) NO22.5 35 0 min 0 lux 0,00 min 3,2 C 1,0 C
01.04.2007 03:31 5,9 C 4,4 C 81 % 1019 hPa 0,0 l/m 14,3 km/h (3 Bft) O-NO22.5 60 0 min 0 lux 0,00 min 2,9 C 0,5 C
01.04.2007 03:46 5,7 C 4,2 C 82 % 1019 hPa 0,0 l/m 13,7 km/h (3 Bft) O-NO22.5 60 0 min 0 lux 0,00 min 2,9 C 0,6 C
01.04.2007 04:01 5,4 C 3,9 C 82 % 1019 hPa 0,0 l/m 14,6 km/h (3 Bft) NO22.5 50 0 min 0 lux 0,00 min 2,6 C -0,2 C
01.04.2007 04:16 5,3 C 3,5 C 82 % 1019 hPa 0,0 l/m 14,0 km/h (3 Bft) NO22.5 45 0 min 0 lux 0,00 min 2,5 C -0,0 C
01.04.2007 04:30 5,2 C 3,3 C 82 % 1019 hPa 0,0 l/m 14,3 km/h (3 Bft) NO22.5 50 0 min 0 lux 0,00 min 2,4 C -0,3 C
01.04.2007 04:45 4,7 C 3,1 C 82 % 1019 hPa 0,0 l/m 12,1 km/h (2 Bft) O-NO22.5 65 0 min 0 lux 0,00 min 1,9 C 0,3 C
01.04.2007 05:00 4,5 C 3,1 C 83 % 1019 hPa 0,0 l/m 12,3 km/h (3 Bft) O-NO22.5 70 0 min 0 lux 0,00 min 1,9 C -0,0 C
01.04.2007 05:15 4,5 C 3,2 C 83 % 1019 hPa 0,0 l/m 14,0 km/h (3 Bft) O-NO22.5 60 0 min 0 lux 0,00 min 1,9 C -1,0 C
01.04.2007 05:30 4,3 C 2,7 C 83 % 1019 hPa 0,0 l/m 12,8 km/h (3 Bft) NO22.5 45 0 min 0 lux 0,00 min 1,7 C -0,5 C
01.04.2007 05:45 4,1 C 2,4 C 83 % 1019 hPa 0,0 l/m 10,7 km/h (2 Bft) NO22.5 45 0 min 0 lux 0,00 min 1,5 C 0,6 C
01.04.2007 06:00 3,8 C 1,7 C 83 % 1019 hPa 0,0 l/m 4,2 km/h (1 Bft) NO 50 0 min 0 lux 0,00 min 1,2 C 3,8 C
01.04.2007 06:15 3,1 C 1,2 C 84 % 1020 hPa 0,0 l/m 4,6 km/h (1 Bft) W 270 0 min 0 lux 0,00 min 0,7 C 3,1 C
01.04.2007 06:30 2,9 C 0,8 C 84 % 1020 hPa 0,0 l/m 4,4 km/h (1 Bft) W 275 0 min 0 lux 0,00 min 0,5 C 2,9 C
01.04.2007 06:45 2,5 C 0,5 C 85 % 1020 hPa 0,0 l/m 5,7 km/h (1 Bft) W22.5 265 0 min 0 lux 0,00 min 0,2 C 2,5 C
01.04.2007 07:00 2,2 C 0,3 C 86 % 1020 hPa 0,0 l/m 5,0 km/h (1 Bft) W22.5 265 0 min 79 lux 0,00 min 0,1 C 2,2 C
01.04.2007 07:15 2,2 C 0,1 C 86 % 1020 hPa 0,0 l/m 3,6 km/h (1 Bft) NW 305 0 min 456 lux 0,00 min 0,1 C 2,2 C
01.04.2007 07:30 2,0 C 0,1 C 87 % 1020 hPa 0,0 l/m 4,0 km/h (1 Bft) W 270 0 min 1,65 klux 0,00 min 0,1 C 2,0 C
01.04.2007 07:45 2,1 C 0,0 C 87 % 1021 hPa 0,0 l/m 2,2 km/h (1 Bft) W 265 0 min 2,17 klux 0,00 min 0,2 C 2,1 C
01.04.2007 08:00 2,0 C 0,1 C 87 % 1021 hPa 0,0 l/m 0,0 km/h (0 Bft) W 270 0 min 4,50 klux 0,00 min 0,1 C 2,0 C
01.04.2007 08:15 2,1 C 0,4 C 87 % 1021 hPa 0,0 l/m 0,0 km/h (0 Bft) W 265 0 min 6,41 klux 0,00 min 0,2 C 2,1 C
01.04.2007 08:30 2,4 C 0,5 C 87 % 1021 hPa 0,0 l/m 1,0 km/h (0 Bft) N-NW45 340 0 min 12,1 klux 0,00 min 0,5 C 2,4 C
01.04.2007 08:45 2,8 C 1,5 C 87 % 1021 hPa 0,0 l/m 0,0 km/h (0 Bft) N-NW 345 0 min 16,7 klux 0,00 min 0,9 C 2,8 C
01.04.2007 09:00 3,9 C 3,0 C 87 % 1021 hPa 0,0 l/m 0,7 km/h (0 Bft) N 355 0 min 22,4 klux 0,00 min 1,9 C 3,9 C
01.04.2007 09:15 5,7 C 4,8 C 84 % 1021 hPa 0,0 l/m 11,4 km/h (2 Bft) NO22.5 50 0 min 27,4 klux 0,00 min 3,2 C 1,9 C
01.04.2007 09:30 6,8 C 6,0 C 80 % 1021 hPa 0,0 l/m 14,6 km/h (3 Bft) O-NO22.5 70 0 min 33,0 klux 0,00 min 3,6 C 1,5 C
01.04.2007 09:45 7,7 C 7,0 C 78 % 1022 hPa 0,0 l/m 16,0 km/h (3 Bft) O-NO22.5 65 0 min 38,5 klux 0,00 min 4,1 C 1,9 C
01.04.2007 10:00 8,6 C 8,1 C 75 % 1022 hPa 0,0 l/m 17,7 km/h (3 Bft) O-NO45 65 0 min 44,1 klux 0,00 min 4,4 C 2,3 C
01.04.2007 10:16 9,4 C 8,9 C 71 % 1022 hPa 0,0 l/m 23,8 km/h (4 Bft) O45 90 16 min 48,9 klux 0,00 min 4,4 C 1,3 C
01.04.2007 10:30 9,8 C 9,6 C 69 % 1022 hPa 0,0 l/m 21,9 km/h (4 Bft) O45 80 14 min 53,9 klux 0,00 min 4,4 C 2,4 C
01.04.2007 10:45 10,3 C 10,1 C 63 % 1022 hPa 0,0 l/m 30,8 km/h (5 Bft) O-NO45 70 15 min 58,3 klux 0,00 min 3,6 C 0,9 C
01.04.2007 11:00 10,5 C 10,5 C 65 % 1022 hPa 0,0 l/m 24,3 km/h (4 Bft) O-NO45 75 15 min 62,0 klux 0,00 min 4,2 C 2,7 C
01.04.2007 11:15 11,0 C 11,1 C 63 % 1022 hPa 0,0 l/m 20,9 km/h (4 Bft) O67.5 95 15 min 66,0 klux 0,00 min 4,2 C 4,3 C
01.04.2007 11:30 11,1 C 11,6 C 64 % 1022 hPa 0,0 l/m 25,3 km/h (4 Bft) O45 80 15 min 68,8 klux 0,00 min 4,6 C 3,2 C
01.04.2007 11:45 11,3 C 12,1 C 62 % 1022 hPa 0,0 l/m 25,9 km/h (4 Bft) O-NO45 60 15 min 70,9 klux 0,00 min 4,3 C 3,4 C
01.04.2007 12:00 11,4 C 12,6 C 61 % 1022 hPa 0,0 l/m 29,7 km/h (5 Bft) O-NO22.5 70 15 min 73,7 klux 0,00 min 4,2 C 2,7 C
01.04.2007 12:16 11,8 C 13,4 C 62 % 1022 hPa 0,0 l/m 23,5 km/h (4 Bft) O45 85 16 min 75,9 klux 0,00 min 4,8 C 4,6 C
01.04.2007 12:30 12,1 C 14,2 C 61 % 1022 hPa 0,0 l/m 23,6 km/h (4 Bft) O45 85 14 min 77,9 klux 0,00 min 4,8 C 5,0 C
01.04.2007 12:45 12,3 C 14,9 C 57 % 1022 hPa 0,0 l/m 29,8 km/h (5 Bft) O45 95 15 min 79,1 klux 0,00 min 4,0 C 3,9 C
01.04.2007 13:00 12,5 C 15,7 C 56 % 1022 hPa 0,0 l/m 33,7 km/h (5 Bft) O-NO45 70 15 min 80,9 klux 0,00 min 4,0 C 3,5 C
01.04.2007 13:15 12,7 C 16,3 C 53 % 1022 hPa 0,0 l/m 40,6 km/h (6 Bft) O-NO45 70 15 min 82,2 klux 0,00 min 3,4 C 2,8 C
01.04.2007 13:30 12,9 C 17,1 C 52 % 1022 hPa 0,0 l/m 40,7 km/h (6 Bft) O-NO22.5 65 15 min 82,7 klux 0,00 min 3,3 C 3,1 C
01.04.2007 13:45 13,1 C 17,9 C 50 % 1022 hPa 0,0 l/m 35,8 km/h (5 Bft) O67.5 95 15 min 82,5 klux 0,00 min 2,9 C 4,1 C
01.04.2007 14:01 13,1 C 18,1 C 48 % 1022 hPa 0,0 l/m 35,5 km/h (5 Bft) O45 80 16 min 82,1 klux 0,00 min 2,3 C 4,1 C
01.04.2007 14:15 13,2 C 18,8 C 49 % 1022 hPa 0,0 l/m 33,1 km/h (5 Bft) O45 80 14 min 81,1 klux 0,00 min 2,7 C 4,6 C
01.04.2007 14:30 13,3 C 19,2 C 46 % 1023 hPa 0,0 l/m 36,4 km/h (5 Bft) O45 80 15 min 79,9 klux 0,00 min 1,9 C 4,3 C
01.04.2007 14:45 13,4 C 19,4 C 47 % 1023 hPa 0,0 l/m 42,7 km/h (6 Bft) O45 80 15 min 78,8 klux 0,00 min 2,3 C 3,6 C
01.04.2007 15:00 13,5 C 19,2 C 47 % 1023 hPa 0,0 l/m 32,1 km/h (5 Bft) O-NO45 65 15 min 76,9 klux 0,00 min 2,4 C 5,2 C
01.04.2007 15:15 13,5 C 19,4 C 47 % 1023 hPa 0,0 l/m 36,1 km/h (5 Bft) O-NO22.5 70 15 min 75,1 klux 0,00 min 2,4 C 4,6 C
01.04.2007 15:30 13,7 C 19,7 C 46 % 1023 hPa 0,0 l/m 34,3 km/h (5 Bft) O-NO45 65 15 min 72,3 klux 0,00 min 2,3 C 5,2 C
01.04.2007 15:45 13,9 C 20,0 C 46 % 1023 hPa 0,0 l/m 29,0 km/h (5 Bft) O-NO45 60 15 min 70,0 klux 0,00 min 2,5 C 6,3 C
01.04.2007 16:01 14,0 C 19,9 C 45 % 1023 hPa 0,0 l/m 34,7 km/h (5 Bft) O-NO45 75 16 min 67,1 klux 0,00 min 2,3 C 5,5 C
01.04.2007 16:15 14,0 C 19,8 C 46 % 1023 hPa 0,0 l/m 26,8 km/h (4 Bft) O45 95 14 min 62,3 klux 0,00 min 2,6 C 6,9 C
01.04.2007 16:30 14,0 C 19,7 C 45 % 1022 hPa 0,0 l/m 28,2 km/h (4 Bft) O45 90 15 min 59,0 klux 0,00 min 2,3 C 6,6 C
01.04.2007 16:45 14,1 C 19,7 C 45 % 1023 hPa 0,0 l/m 29,3 km/h (5 Bft) O45 85 15 min 55,1 klux 0,00 min 2,4 C 6,5 C
01.04.2007 17:00 14,2 C 19,8 C 46 % 1023 hPa 0,0 l/m 24,6 km/h (4 Bft) O-NO45 65 15 min 52,0 klux 0,00 min 2,8 C 7,6 C
01.04.2007 17:15 14,1 C 19,6 C 45 % 1023 hPa 0,0 l/m 25,1 km/h (4 Bft) O45 80 15 min 47,6 klux 0,00 min 2,4 C 7,4 C
01.04.2007 17:30 14,1 C 19,2 C 44 % 1023 hPa 0,0 l/m 24,2 km/h (4 Bft) O-NO45 70 0 min 44,4 klux 0,00 min 2,0 C 7,6 C
01.04.2007 17:46 14,0 C 18,9 C 44 % 1023 hPa 0,0 l/m 25,5 km/h (4 Bft) O45 85 0 min 39,0 klux 0,00 min 1,9 C 7,1 C
01.04.2007 18:00 14,0 C 18,3 C 45 % 1023 hPa 0,0 l/m 26,3 km/h (4 Bft) O-NO45 70 0 min 35,2 klux 0,00 min 2,3 C 7,0 C
01.04.2007 18:15 13,7 C 17,7 C 45 % 1023 hPa 0,0 l/m 23,0 km/h (4 Bft) O-NO45 65 0 min 29,7 klux 0,00 min 2,0 C 7,3 C
01.04.2007 18:30 13,5 C 17,0 C 44 % 1023 hPa 0,0 l/m 27,7 km/h (4 Bft) O-NO45 60 0 min 25,7 klux 0,00 min 1,5 C 6,0 C
01.04.2007 18:45 13,2 C 14,5 C 45 % 1023 hPa 0,0 l/m 24,5 km/h (4 Bft) O-NO45 60 0 min 21,1 klux 0,00 min 1,5 C 6,3 C
01.04.2007 19:00 12,9 C 13,1 C 47 % 1023 hPa 0,0 l/m 19,3 km/h (3 Bft) O45 90 0 min 15,8 klux 0,00 min 1,9 C 7,2 C
01.04.2007 19:15 12,4 C 12,0 C 48 % 1023 hPa 0,0 l/m 16,5 km/h (3 Bft) O-NO45 60 0 min 12,1 klux 0,00 min 1,7 C 7,5 C
01.04.2007 19:31 11,9 C 10,9 C 49 % 1023 hPa 0,0 l/m 8,8 km/h (2 Bft) O-NO22.5 60 0 min 6,79 klux 0,00 min 1,5 C 10,4 C
01.04.2007 19:46 11,1 C 9,7 C 51 % 1023 hPa 0,0 l/m 9,7 km/h (2 Bft) NO22.5 50 0 min 3,87 klux 0,00 min 1,4 C 9,0 C
01.04.2007 20:00 10,4 C 8,5 C 52 % 1023 hPa 0,0 l/m 7,1 km/h (2 Bft) NO22.5 50 0 min 1,77 klux 0,00 min 1,0 C 9,9 C
01.04.2007 20:15 9,9 C 7,7 C 54 % 1024 hPa 0,0 l/m 7,4 km/h (2 Bft) O-NO22.5 65 0 min 606 lux 0,00 min 1,0 C 9,2 C
01.04.2007 20:30 9,4 C 6,8 C 55 % 1024 hPa 0,0 l/m 8,5 km/h (2 Bft) NO22.5 45 0 min 120 lux 0,00 min 0,8 C 7,9 C
01.04.2007 20:45 8,8 C 6,2 C 56 % 1024 hPa 0,0 l/m 5,7 km/h (1 Bft) N-NO 25 0 min 16 lux 0,00 min 0,5 C 8,8 C
01.04.2007 21:00 8,0 C 5,3 C 58 % 1024 hPa 0,0 l/m 4,2 km/h (1 Bft) N-NO 20 0 min 1 lux 0,00 min 0,3 C 8,0 C
01.04.2007 21:15 7,5 C 5,0 C 60 % 1024 hPa 0,0 l/m 8,4 km/h (2 Bft) O-NO22.5 60 0 min 0 lux 0,00 min 0,2 C 5,9 C
01.04.2007 21:31 7,2 C 4,8 C 61 % 1024 hPa 0,0 l/m 6,8 km/h (2 Bft) NO22.5 55 0 min 0 lux 0,00 min 0,2 C 6,9 C
01.04.2007 21:45 7,1 C 4,4 C 61 % 1025 hPa 0,0 l/m 5,9 km/h (2 Bft) NO 55 0 min 0 lux 0,00 min 0,1 C 7,1 C
01.04.2007 22:00 6,5 C 3,5 C 62 % 1025 hPa 0,0 l/m 4,9 km/h (1 Bft) NO 40 0 min 0 lux 0,00 min -0,2 C 6,5 C
01.04.2007 22:15 5,9 C 2,8 C 64 % 1025 hPa 0,0 l/m 5,0 km/h (1 Bft) NO 45 0 min 0 lux 0,00 min -0,4 C 5,9 C
01.04.2007 22:30 5,6 C 2,4 C 65 % 1025 hPa 0,0 l/m 5,9 km/h (2 Bft) NO 40 0 min 0 lux 0,00 min -0,4 C 5,6 C
01.04.2007 22:45 5,6 C 2,4 C 66 % 1025 hPa 0,0 l/m 5,7 km/h (1 Bft) NO 40 0 min 0 lux 0,00 min -0,2 C 5,6 C
01.04.2007 23:00 5,4 C 2,2 C 67 % 1025 hPa 0,0 l/m 4,4 km/h (1 Bft) N-NO 30 0 min 0 lux 0,00 min -0,2 C 5,4 C
01.04.2007 23:16 5,3 C 1,7 C 67 % 1025 hPa 0,0 l/m 5,6 km/h (1 Bft) NO 35 0 min 0 lux 0,00 min -0,3 C 5,3 C
01.04.2007 23:31 5,1 C 1,5 C 67 % 1025 hPa 0,0 l/m 4,9 km/h (1 Bft) NO 40 0 min 0 lux 0,00 min -0,5 C 5,1 C
01.04.2007 23:45 4,8 C 1,2 C 68 % 1025 hPa 0,0 l/m 5,9 km/h (2 Bft) NO 35 0 min 0 lux 0,00 min -0,6 C 4,8 C
01.04.2007 23:54 4,3 C 0,8 C 69 % 1025 hPa 0,0 l/m 5,7 km/h (1 Bft) NO22.5 35 0 min 0 lux 0,00 min -0,9 C 4,3 C
_ Min-Zeit 07:30 07:45 17:30 00:00 - 08:00 - - - - - 23:54 05:15
Minimum _ 2,0 C 0,0 C 44 % 1018 hPa - 0,0 km/h (0 Bft) - - - - - -0,9 C -1,0 C
_ Max-Zeit 17:00 15:45 07:30 21:45 00:00 14:45 - - 10:16 13:30 00:00 12:30 19:31
Maximum _ 14,2 C 20,0 C 87 % 1025 hPa 0,0 l/m 42,7 km/h
O (6 Bft)
- - 16 min 82,7 klux 0,00 min 4,8 C 10,4 C
Durchschnitt _ 8,4 C 8,6 C 67 % 1022 hPa #0,0 l/m 16,1 km/h (3 Bft) O-NO - #7:15 h 25,4 klux #0 min. 2,2 C 4,2 C